Time;durP1;ratioP1;P1;durP2;ratioP2;P2;SDS_P1;SDS_P2;PMS_P1;PMS_P2;Temp;Humidity;BMP_temperature;BMP_pressure;BME280_temperature;BME280_humidity;BME280_pressure;Samples;Min_cycle;Max_cycle;Signal;HPM_P1;HPM_P2
2022/10/19 00:00:50;;;;;;;8.25;1.15;;;9.50;99.90;;;;;;5012405;28;20042;-81
2022/10/19 00:03:16;;;;;;;10.25;1.40;;;9.50;99.90;;;;;;5011568;28;20061;-81
2022/10/19 00:05:42;;;;;;;6.78;1.25;;;9.50;99.90;;;;;;5012009;28;20065;-82
2022/10/19 00:08:07;;;;;;;3.92;1.30;;;9.60;99.90;;;;;;5012062;28;20050;-82
2022/10/19 00:10:33;;;;;;;8.10;1.60;;;9.60;99.90;;;;;;5011393;28;20085;-81
2022/10/19 00:12:59;;;;;;;8.13;1.48;;;9.60;99.90;;;;;;4993781;28;20444;-81
2022/10/19 00:15:25;;;;;;;6.03;1.42;;;9.60;99.90;;;;;;5012295;28;20385;-80
2022/10/19 00:17:50;;;;;;;7.93;1.48;;;9.70;99.90;;;;;;5011940;28;20497;-80
2022/10/19 00:20:16;;;;;;;13.57;1.92;;;10.00;99.90;;;;;;5011513;28;20042;-80
2022/10/19 00:22:42;;;;;;;8.52;2.03;;;10.10;99.90;;;;;;5011857;28;20042;-81
2022/10/19 00:25:07;;;;;;;6.95;1.65;;;9.80;99.90;;;;;;5011551;28;20508;-81
2022/10/19 00:27:34;;;;;;;8.55;1.70;;;9.80;99.90;;;;;;5011485;28;20134;-80
2022/10/19 00:30:00;;;;;;;10.45;2.17;;;9.80;99.90;;;;;;5009014;28;20065;-82
2022/10/19 00:32:26;;;;;;;13.60;1.75;;;9.80;99.90;;;;;;5011356;28;20053;-82
2022/10/19 00:34:51;;;;;;;9.85;1.63;;;9.90;99.90;;;;;;5011531;28;20045;-82
2022/10/19 00:37:17;;;;;;;7.78;1.80;;;9.80;99.90;;;;;;4993565;28;20152;-81
2022/10/19 00:39:43;;;;;;;7.95;1.60;;;9.80;99.90;;;;;;5011206;28;20389;-81
2022/10/19 00:42:11;;;;;;;8.05;2.03;;;9.90;99.90;;;;;;4993296;28;20052;-81
2022/10/19 00:44:36;;;;;;;12.85;2.03;;;10.50;99.90;;;;;;5011175;28;20117;-80
2022/10/19 00:47:06;;;;;;;9.82;1.83;;;9.90;99.90;;;;;;5011308;28;20152;-80
2022/10/19 00:49:38;;;;;;;12.15;2.00;;;9.90;99.90;;;;;;5010620;28;20058;-81
2022/10/19 00:52:12;;;;;;;9.43;2.88;;;9.90;99.90;;;;;;4996837;28;20053;-81
2022/10/19 00:54:39;;;;;;;10.63;1.67;;;9.80;99.90;;;;;;5011174;28;20136;-81
2022/10/19 00:57:06;;;;;;;7.35;1.85;;;9.90;99.90;;;;;;4993214;28;20060;-81
2022/10/19 00:59:33;;;;;;;11.40;2.00;;;9.90;99.90;;;;;;4992727;28;20103;-80
2022/10/19 01:02:02;;;;;;;10.40;1.65;;;9.90;99.90;;;;;;4992807;28;20041;-82
2022/10/19 01:04:29;;;;;;;4.47;2.00;;;9.90;99.90;;;;;;5011033;28;20054;-81
2022/10/19 01:06:56;;;;;;;10.52;2.17;;;9.90;99.90;;;;;;5025777;28;20049;-80
2022/10/19 01:09:22;;;;;;;4.97;1.60;;;10.00;99.90;;;;;;5010825;28;20042;-82
2022/10/19 01:12:14;;;;;;;7.40;1.60;;;9.90;99.90;;;;;;5010210;28;20046;-81
2022/10/19 01:15:04;;;;;;;6.07;1.63;;;9.90;99.90;;;;;;5042441;28;20046;-79
2022/10/19 01:18:05;;;;;;;14.82;2.08;;;10.00;99.90;;;;;;5010674;28;20550;-80
2022/10/19 01:20:55;;;;;;;9.35;1.70;;;10.00;99.90;;;;;;4936781;28;20505;-80
2022/10/19 01:23:59;;;;;;;7.50;2.00;;;10.00;99.90;;;;;;4937148;29;20215;-80
2022/10/19 01:26:46;;;;;;;11.55;1.55;;;10.10;99.90;;;;;;4933819;29;20495;-80
2022/10/19 01:29:41;;;;;;;5.78;1.40;;;10.10;99.90;;;;;;4949220;29;20059;-80
2022/10/19 01:32:21;;;;;;;9.60;1.63;;;10.10;99.90;;;;;;4948900;29;20094;-80
2022/10/19 01:35:06;;;;;;;5.82;1.60;;;10.10;99.90;;;;;;4933092;29;20123;-81
2022/10/19 01:37:40;;;;;;;10.52;2.33;;;10.10;99.90;;;;;;4933643;29;20517;-80
2022/10/19 01:40:05;;;;;;;4.05;1.40;;;10.20;99.90;;;;;;4933176;29;20058;-80
2022/10/19 01:42:41;;;;;;;7.15;1.63;;;10.10;99.90;;;;;;4933429;29;20066;-79
2022/10/19 01:45:28;;;;;;;8.93;1.60;;;10.20;99.90;;;;;;4949739;29;20061;-81
2022/10/19 01:48:04;;;;;;;7.35;1.60;;;10.20;99.90;;;;;;4932778;29;20055;-80
2022/10/19 01:50:47;;;;;;;10.43;1.58;;;10.80;99.90;;;;;;4927965;29;20075;-80
2022/10/19 01:53:16;;;;;;;7.63;1.30;;;10.10;99.90;;;;;;4944744;28;20081;-80
2022/10/19 01:55:43;;;;;;;10.45;1.60;;;10.20;99.90;;;;;;5008825;28;20104;-80
2022/10/19 01:58:15;;;;;;;11.57;1.63;;;10.20;99.90;;;;;;5025997;28;20484;-80
2022/10/19 02:00:44;;;;;;;6.93;1.25;;;10.20;99.90;;;;;;4991877;28;20064;-81
2022/10/19 02:03:11;;;;;;;7.00;1.02;;;10.20;99.90;;;;;;5007317;28;20069;-78
2022/10/19 02:05:39;;;;;;;6.88;1.25;;;10.20;99.90;;;;;;5008659;28;20061;-82
2022/10/19 02:08:29;;;;;;;12.15;1.73;;;10.20;99.90;;;;;;5009920;28;20053;-81
2022/10/19 02:10:56;;;;;;;10.18;1.48;;;10.30;99.90;;;;;;4991919;28;20050;-80
2022/10/19 02:13:23;;;;;;;7.32;1.60;;;10.30;99.90;;;;;;4991828;28;20050;-82
2022/10/19 02:15:52;;;;;;;6.10;1.10;;;10.30;99.90;;;;;;5009143;28;20508;-81
2022/10/19 02:18:27;;;;;;;9.55;1.10;;;10.30;99.90;;;;;;4991994;28;20136;-81
2022/10/19 02:20:53;;;;;;;8.45;1.85;;;10.30;99.90;;;;;;5009475;28;20046;-81
2022/10/19 02:23:25;;;;;;;11.00;1.38;;;10.30;99.90;;;;;;5007751;28;20060;-79
2022/10/19 02:25:51;;;;;;;8.57;1.48;;;10.30;99.90;;;;;;5010061;28;20113;-80
2022/10/19 02:28:17;;;;;;;9.10;1.10;;;10.60;99.90;;;;;;5009950;28;20760;-81
2022/10/19 02:30:43;;;;;;;11.27;1.08;;;10.30;99.90;;;;;;5010089;28;20124;-81
2022/10/19 02:33:11;;;;;;;7.25;1.20;;;10.30;99.90;;;;;;5009044;28;20056;-80
2022/10/19 02:35:37;;;;;;;10.75;1.20;;;10.70;99.90;;;;;;4991431;28;20616;-80
2022/10/19 02:38:04;;;;;;;7.38;1.00;;;10.30;99.90;;;;;;5009275;28;20132;-80
2022/10/19 02:40:38;;;;;;;8.75;1.40;;;10.40;99.90;;;;;;5004657;28;20042;-81
2022/10/19 02:43:10;;;;;;;11.18;1.13;;;10.40;99.90;;;;;;5009333;28;20497;-81
2022/10/19 02:45:47;;;;;;;5.40;0.90;;;10.40;99.90;;;;;;5009674;28;20037;-81
2022/10/19 02:48:20;;;;;;;7.53;0.88;;;10.40;99.90;;;;;;5009525;28;20093;-81
2022/10/19 02:50:47;;;;;;;8.80;0.93;;;10.40;99.90;;;;;;5009601;28;20069;-82
2022/10/19 02:53:13;;;;;;;8.38;1.10;;;10.40;99.90;;;;;;5009824;28;20053;-82
2022/10/19 02:55:40;;;;;;;9.75;1.20;;;10.40;99.90;;;;;;5009182;28;20048;-80
2022/10/19 02:58:05;;;;;;;10.68;1.35;;;10.40;99.90;;;;;;5009334;28;20409;-81
2022/10/19 03:00:31;;;;;;;7.43;0.90;;;10.40;99.90;;;;;;5009282;28;20041;-81
2022/10/19 03:02:57;;;;;;;4.93;0.93;;;10.40;99.90;;;;;;5008649;28;20050;-80
2022/10/19 03:05:22;;;;;;;5.57;1.00;;;10.40;99.90;;;;;;5008201;28;20049;-81
2022/10/19 03:07:48;;;;;;;6.75;1.10;;;10.40;99.90;;;;;;5028192;28;20096;-81
2022/10/19 03:10:14;;;;;;;8.02;0.98;;;10.30;99.90;;;;;;5012958;28;20050;-82
2022/10/19 03:12:39;;;;;;;8.07;1.08;;;10.30;99.90;;;;;;5012373;28;20049;-81
2022/10/19 03:15:05;;;;;;;6.13;0.90;;;10.20;99.90;;;;;;5013303;28;20096;-81
2022/10/19 03:17:31;;;;;;;6.75;0.80;;;10.20;99.90;;;;;;5012797;28;20046;-82
2022/10/19 03:19:57;;;;;;;11.00;0.85;;;10.10;99.90;;;;;;4995460;28;20064;-81
2022/10/19 03:22:22;;;;;;;7.47;0.73;;;10.00;99.90;;;;;;5012394;28;20045;-81
2022/10/19 03:24:48;;;;;;;6.22;0.90;;;9.90;99.90;;;;;;5028025;28;20085;-80
2022/10/19 03:27:14;;;;;;;10.23;0.80;;;9.90;99.90;;;;;;5011596;28;20062;-81
2022/10/19 03:29:39;;;;;;;3.78;0.70;;;10.20;99.90;;;;;;5012606;28;20046;-81
2022/10/19 03:32:05;;;;;;;4.15;0.90;;;9.80;99.90;;;;;;4994531;28;20056;-81
2022/10/19 03:34:31;;;;;;;8.00;1.15;;;10.30;99.90;;;;;;5011537;28;20093;-81
2022/10/19 03:36:58;;;;;;;5.55;0.85;;;9.70;99.90;;;;;;5012263;28;20041;-81
2022/10/19 03:39:24;;;;;;;8.88;1.00;;;9.70;99.90;;;;;;4994781;28;20054;-81
2022/10/19 03:41:50;;;;;;;7.20;1.08;;;9.60;99.90;;;;;;5027350;28;20065;-82
2022/10/19 03:44:15;;;;;;;5.47;0.93;;;9.60;99.90;;;;;;5012148;28;20046;-81
2022/10/19 03:46:41;;;;;;;5.65;0.82;;;9.50;99.90;;;;;;5012013;28;20046;-81
2022/10/19 03:49:08;;;;;;;4.53;1.20;;;9.50;99.90;;;;;;5012174;28;20057;-81
2022/10/19 03:51:35;;;;;;;10.98;0.90;;;9.50;99.90;;;;;;5011941;28;20054;-81
2022/10/19 03:54:05;;;;;;;7.93;0.93;;;9.40;99.90;;;;;;5011258;28;20184;-80
2022/10/19 03:56:32;;;;;;;5.68;0.80;;;9.40;99.90;;;;;;5012395;28;20121;-80
2022/10/19 03:58:59;;;;;;;10.38;0.93;;;9.30;99.90;;;;;;5011932;28;20049;-79
2022/10/19 04:01:29;;;;;;;8.68;1.30;;;9.40;99.90;;;;;;5012008;28;20075;-80
2022/10/19 04:03:56;;;;;;;8.88;0.90;;;9.40;99.90;;;;;;5011548;28;20038;-81
2022/10/19 04:06:25;;;;;;;4.93;0.98;;;9.40;99.90;;;;;;5012017;28;20046;-81
2022/10/19 04:08:51;;;;;;;6.95;0.90;;;9.40;99.90;;;;;;5011352;28;20038;-81
2022/10/19 04:11:20;;;;;;;2.35;0.68;;;9.40;99.90;;;;;;5011557;28;20060;-80
2022/10/19 04:13:51;;;;;;;6.00;1.50;;;9.40;99.90;;;;;;5011433;28;20054;-81
2022/10/19 04:16:18;;;;;;;8.23;1.33;;;9.40;99.90;;;;;;5011500;28;20054;-80
2022/10/19 04:18:43;;;;;;;8.52;1.13;;;9.40;99.90;;;;;;5011157;28;20053;-83
2022/10/19 04:21:35;;;;;;;4.00;0.80;;;9.40;99.90;;;;;;4994407;28;20058;-80
2022/10/19 04:24:07;;;;;;;4.97;0.98;;;9.30;99.90;;;;;;4993452;28;20587;-80
2022/10/19 04:26:33;;;;;;;5.57;1.00;;;9.40;99.90;;;;;;5011450;28;20497;-80
2022/10/19 04:28:59;;;;;;;12.40;1.13;;;9.40;99.90;;;;;;5011234;28;20054;-79
2022/10/19 04:31:27;;;;;;;9.07;1.10;;;9.40;99.90;;;;;;5011307;28;20509;-80
2022/10/19 04:33:53;;;;;;;5.93;1.05;;;9.40;99.90;;;;;;5010690;28;20042;-81
2022/10/19 04:36:19;;;;;;;9.05;1.13;;;9.40;99.90;;;;;;5011173;28;20095;-80
2022/10/19 04:38:44;;;;;;;7.60;1.00;;;9.40;99.90;;;;;;4993377;28;20053;-79
2022/10/19 04:41:19;;;;;;;10.02;1.00;;;9.40;99.90;;;;;;5010935;28;20041;-79
2022/10/19 04:43:44;;;;;;;5.35;0.90;;;9.40;99.90;;;;;;5010850;28;20089;-84
2022/10/19 04:46:17;;;;;;;10.70;1.48;;;9.50;99.90;;;;;;5011354;28;20765;-80
2022/10/19 04:48:43;;;;;;;8.68;1.10;;;9.90;99.90;;;;;;5011350;28;20062;-79
2022/10/19 04:51:10;;;;;;;10.30;1.52;;;9.50;99.90;;;;;;5011238;28;20061;-80
2022/10/19 04:53:37;;;;;;;12.05;1.80;;;9.50;99.90;;;;;;5010807;28;20037;-79
2022/10/19 04:56:05;;;;;;;13.70;1.85;;;9.50;99.90;;;;;;5010171;28;20050;-78
2022/10/19 04:58:31;;;;;;;11.55;1.30;;;9.50;99.90;;;;;;5011046;28;20124;-81
2022/10/19 05:00:56;;;;;;;8.93;1.35;;;9.50;99.90;;;;;;5011176;28;20149;-81
2022/10/19 05:03:22;;;;;;;7.70;1.50;;;9.60;99.90;;;;;;5011177;28;20049;-80
2022/10/19 05:05:48;;;;;;;11.68;2.47;;;9.60;99.90;;;;;;5010340;28;20053;-80
2022/10/19 05:08:14;;;;;;;8.48;1.30;;;9.60;99.90;;;;;;5011121;28;20058;-79
2022/10/19 05:10:39;;;;;;;14.63;1.67;;;9.50;99.90;;;;;;5010810;28;20045;-79
2022/10/19 05:13:05;;;;;;;13.70;1.65;;;9.60;99.90;;;;;;5010179;28;20050;-80
2022/10/19 05:15:31;;;;;;;12.32;1.55;;;9.60;99.90;;;;;;5010242;28;20042;-77
2022/10/19 05:17:57;;;;;;;11.00;1.55;;;9.60;99.90;;;;;;5010572;28;20045;-78
2022/10/19 05:20:23;;;;;;;15.70;2.53;;;9.80;99.90;;;;;;5010680;28;20072;-79
2022/10/19 05:22:49;;;;;;;11.93;1.90;;;9.60;99.90;;;;;;5010789;28;20126;-78
2022/10/19 05:25:15;;;;;;;14.60;1.70;;;9.60;99.90;;;;;;5010584;28;20053;-80
2022/10/19 05:27:41;;;;;;;11.70;1.52;;;9.60;99.90;;;;;;4992288;28;20118;-78
2022/10/19 05:30:07;;;;;;;10.77;1.52;;;9.60;99.90;;;;;;5010450;28;20050;-79
2022/10/19 05:32:33;;;;;;;7.25;1.48;;;9.60;99.90;;;;;;5010417;28;20484;-77
2022/10/19 05:34:59;;;;;;;12.95;1.40;;;9.20;99.90;;;;;;5010850;28;20076;-78
2022/10/19 05:37:25;;;;;;;9.52;1.50;;;9.60;99.90;;;;;;5006127;28;20179;-79
2022/10/19 05:39:51;;;;;;;7.65;1.33;;;10.20;99.90;;;;;;5010284;28;20483;-79
2022/10/19 05:42:16;;;;;;;11.07;1.50;;;9.60;99.90;;;;;;5009863;28;20057;-79
2022/10/19 05:44:42;;;;;;;9.77;1.70;;;9.60;99.90;;;;;;4992750;28;20196;-79
2022/10/19 05:47:08;;;;;;;15.52;1.73;;;9.70;99.90;;;;;;5010411;28;20045;-80
2022/10/19 05:49:33;;;;;;;12.90;1.50;;;9.70;99.90;;;;;;5009654;28;20046;-80
2022/10/19 05:51:59;;;;;;;8.38;1.40;;;9.70;99.90;;;;;;5010132;28;20050;-80
2022/10/19 05:54:25;;;;;;;9.40;1.35;;;9.60;99.90;;;;;;5010035;28;20492;-78
2022/10/19 05:56:50;;;;;;;7.43;1.20;;;9.70;99.90;;;;;;5010243;28;20049;-80
2022/10/19 05:59:18;;;;;;;9.50;0.95;;;10.10;99.90;;;;;;4997968;28;20089;-79
2022/10/19 06:01:45;;;;;;;10.55;1.27;;;9.70;99.90;;;;;;5010068;28;20045;-80
2022/10/19 06:04:13;;;;;;;8.43;1.50;;;9.70;99.90;;;;;;5010274;28;20058;-79
2022/10/19 06:06:40;;;;;;;9.25;1.30;;;10.10;99.90;;;;;;4992108;28;20401;-80
2022/10/19 06:09:06;;;;;;;14.23;1.40;;;9.70;99.90;;;;;;5010232;28;20517;-79
2022/10/19 06:11:34;;;;;;;14.10;1.60;;;9.70;99.90;;;;;;5010034;28;20046;-80
2022/10/19 06:14:03;;;;;;;10.15;1.20;;;9.70;99.90;;;;;;5009853;28;20045;-80
2022/10/19 06:16:30;;;;;;;13.95;1.45;;;10.10;99.90;;;;;;5009583;28;20100;-80
2022/10/19 06:18:56;;;;;;;10.02;1.77;;;9.70;99.90;;;;;;5009939;28;20048;-79
2022/10/19 06:21:25;;;;;;;10.73;1.50;;;9.80;99.90;;;;;;5010078;28;20054;-79
2022/10/19 06:23:55;;;;;;;9.35;1.40;;;9.80;99.90;;;;;;4991780;28;20520;-78
2022/10/19 06:26:22;;;;;;;14.57;1.55;;;9.80;99.90;;;;;;5009728;28;20775;-78
2022/10/19 06:28:48;;;;;;;17.58;2.85;;;9.90;99.90;;;;;;5008243;28;20054;-81
2022/10/19 06:31:14;;;;;;;12.02;1.60;;;10.00;99.90;;;;;;5009670;28;20129;-81
2022/10/19 06:33:40;;;;;;;11.48;1.38;;;9.90;99.90;;;;;;5009952;28;20124;-79
2022/10/19 06:36:15;;;;;;;8.15;1.80;;;9.90;99.90;;;;;;4991969;28;20085;-80
2022/10/19 06:38:42;;;;;;;18.67;2.20;;;9.90;99.90;;;;;;5009866;28;20046;-80
2022/10/19 06:41:07;;;;;;;10.48;1.20;;;9.90;99.90;;;;;;4993778;28;20618;-80
2022/10/19 06:43:34;;;;;;;9.27;1.50;;;9.90;99.90;;;;;;5013124;28;20045;-79
2022/10/19 06:46:08;;;;;;;13.18;1.55;;;10.00;99.90;;;;;;4994771;28;20115;-81
2022/10/19 06:48:34;;;;;;;9.23;1.02;;;9.90;99.90;;;;;;5013141;28;20492;-81
2022/10/19 06:51:03;;;;;;;11.52;1.70;;;9.90;99.90;;;;;;5012874;28;20555;-80
2022/10/19 06:53:28;;;;;;;10.32;1.63;;;10.00;99.90;;;;;;5013418;28;20042;-79
2022/10/19 06:55:58;;;;;;;11.20;1.70;;;10.00;99.90;;;;;;4995598;28;20527;-80
2022/10/19 06:58:27;;;;;;;14.23;2.25;;;10.00;99.90;;;;;;5012355;28;20073;-79
2022/10/19 07:00:58;;;;;;;15.18;2.03;;;10.00;99.90;;;;;;5012572;28;20045;-79
2022/10/19 07:03:24;;;;;;;8.95;1.30;;;10.00;99.90;;;;;;5013210;28;20046;-82
2022/10/19 07:05:58;;;;;;;10.35;1.77;;;10.10;99.90;;;;;;4994932;28;20468;-81
2022/10/19 07:08:25;;;;;;;13.10;1.73;;;10.10;99.90;;;;;;5013098;28;20444;-79
2022/10/19 07:11:01;;;;;;;10.88;1.85;;;10.10;99.90;;;;;;5012381;28;20042;-79
2022/10/19 07:13:28;;;;;;;17.10;1.60;;;10.20;99.90;;;;;;4995255;28;20041;-79
2022/10/19 07:16:04;;;;;;;9.32;1.35;;;10.20;99.90;;;;;;5013048;28;20472;-78
2022/10/19 07:18:34;;;;;;;6.72;1.58;;;10.20;99.90;;;;;;5027992;28;20064;-78
2022/10/19 07:21:03;;;;;;;15.07;1.58;;;10.70;99.90;;;;;;5012957;28;20125;-80
2022/10/19 07:23:30;;;;;;;14.25;2.03;;;10.30;99.90;;;;;;5012962;28;20049;-80
2022/10/19 07:26:00;;;;;;;17.63;1.63;;;10.40;99.90;;;;;;5012931;28;20420;-80
2022/10/19 07:28:28;;;;;;;14.88;1.75;;;10.40;99.90;;;;;;5012854;28;20096;-79
2022/10/19 07:30:54;;;;;;;13.82;1.83;;;10.50;99.90;;;;;;5012641;28;20046;-83
2022/10/19 07:33:19;;;;;;;17.77;1.98;;;10.50;99.90;;;;;;5012559;28;20053;-79
2022/10/19 07:35:45;;;;;;;10.20;1.50;;;10.50;99.90;;;;;;5012859;28;20076;-80
2022/10/19 07:38:11;;;;;;;15.23;1.73;;;10.60;99.90;;;;;;5011896;28;20121;-80
2022/10/19 07:40:37;;;;;;;13.77;1.65;;;11.10;99.90;;;;;;4994746;28;20467;-78
2022/10/19 07:43:03;;;;;;;12.38;1.42;;;10.60;99.90;;;;;;5026851;28;20057;-79
2022/10/19 07:45:29;;;;;;;7.63;1.20;;;10.70;99.90;;;;;;5012583;28;20484;-78
2022/10/19 07:47:54;;;;;;;10.70;1.88;;;10.70;99.90;;;;;;5011999;28;20085;-80
2022/10/19 07:50:23;;;;;;;13.35;1.60;;;10.80;99.90;;;;;;5011741;28;20061;-78
2022/10/19 07:52:51;;;;;;;9.48;1.30;;;10.80;99.90;;;;;;5010865;28;20054;-79
2022/10/19 07:55:16;;;;;;;13.23;1.38;;;10.90;99.90;;;;;;5012452;28;20060;-81
2022/10/19 07:57:45;;;;;;;9.75;1.50;;;10.90;99.90;;;;;;5012400;28;20046;-79
2022/10/19 08:00:11;;;;;;;10.80;1.55;;;11.00;99.90;;;;;;5011848;28;20050;-79
2022/10/19 08:02:36;;;;;;;15.13;2.05;;;11.00;99.90;;;;;;5012187;28;20125;-80
2022/10/19 08:05:02;;;;;;;7.47;1.10;;;11.20;99.90;;;;;;5011879;28;20160;-78
2022/10/19 08:07:28;;;;;;;10.68;1.65;;;11.10;99.90;;;;;;5011924;28;20429;-81
2022/10/19 08:09:53;;;;;;;9.23;1.58;;;11.20;99.90;;;;;;5011486;28;20037;-79
2022/10/19 08:12:19;;;;;;;14.52;1.30;;;11.20;99.90;;;;;;5010465;28;20421;-79
2022/10/19 08:14:46;;;;;;;10.43;1.45;;;11.30;99.90;;;;;;5010793;28;20497;-78
2022/10/19 08:17:15;;;;;;;10.77;1.38;;;11.30;99.90;;;;;;5011641;28;20133;-78
2022/10/19 08:19:42;;;;;;;13.32;1.70;;;11.60;99.90;;;;;;5011702;28;20042;-78
2022/10/19 08:22:08;;;;;;;10.30;1.23;;;11.50;99.90;;;;;;4993715;28;20050;-79
2022/10/19 08:24:33;;;;;;;11.27;1.55;;;11.40;99.90;;;;;;5011577;28;20048;-78
2022/10/19 08:27:01;;;;;;;12.48;1.42;;;11.50;99.90;;;;;;5011885;28;20042;-79
2022/10/19 08:29:27;;;;;;;9.82;1.45;;;11.60;99.90;;;;;;5010093;28;20060;-79
2022/10/19 08:31:53;;;;;;;9.02;1.63;;;11.60;99.90;;;;;;5011030;28;20046;-82
2022/10/19 08:34:18;;;;;;;9.38;1.75;;;11.60;99.90;;;;;;5026449;28;20099;-80
2022/10/19 08:36:44;;;;;;;9.20;1.98;;;11.80;99.90;;;;;;5011047;28;20073;-78
2022/10/19 08:39:11;;;;;;;10.02;1.42;;;12.10;99.90;;;;;;5011066;28;20139;-80
2022/10/19 08:41:40;;;;;;;9.32;1.35;;;11.80;99.90;;;;;;5010929;28;20042;-80
2022/10/19 08:44:45;;;;;;;16.90;1.50;;;11.90;99.90;;;;;;5010090;28;20050;-79
2022/10/19 08:47:33;;;;;;;8.05;1.10;;;11.90;99.90;;;;;;5043086;28;20089;-78
2022/10/19 08:49:59;;;;;;;11.32;1.45;;;11.90;99.90;;;;;;5009579;28;20523;-79
2022/10/19 08:52:34;;;;;;;11.52;1.33;;;12.00;99.90;;;;;;5010613;28;20050;-80
2022/10/19 08:55:10;;;;;;;11.27;1.42;;;12.00;99.90;;;;;;5011421;28;20046;-85
2022/10/19 08:58:02;;;;;;;12.27;1.83;;;12.10;99.90;;;;;;5011181;28;20080;-79
2022/10/19 09:00:42;;;;;;;13.52;1.73;;;12.10;99.90;;;;;;5011277;28;20069;-81
2022/10/19 09:03:45;;;;;;;10.52;1.55;;;12.20;99.90;;;;;;5010307;28;20081;-78
2022/10/19 09:06:29;;;;;;;13.20;1.40;;;12.20;99.90;;;;;;5010726;28;20050;-82
2022/10/19 09:08:56;;;;;;;9.65;1.63;;;12.30;99.90;;;;;;5011073;28;20046;-82
2022/10/19 09:11:26;;;;;;;8.98;1.80;;;12.40;99.90;;;;;;5011017;28;20049;-79
2022/10/19 09:14:01;;;;;;;11.48;1.65;;;12.40;99.90;;;;;;5039450;28;20057;-79
2022/10/19 09:16:27;;;;;;;9.18;1.80;;;12.40;99.90;;;;;;5009307;28;20056;-79
2022/10/19 09:18:53;;;;;;;10.73;1.27;;;12.40;99.90;;;;;;4993312;28;20053;-78
2022/10/19 09:21:36;;;;;;;12.65;1.50;;;12.50;99.90;;;;;;5010705;28;20046;-81
2022/10/19 09:24:05;;;;;;;10.75;1.13;;;12.50;99.90;;;;;;5010148;28;20673;-81
2022/10/19 09:26:54;;;;;;;7.05;1.08;;;12.60;99.90;;;;;;5010553;28;20085;-79
2022/10/19 09:29:41;;;;;;;9.80;2.25;;;12.60;99.90;;;;;;5010575;28;20054;-80
2022/10/19 09:32:17;;;;;;;11.55;1.83;;;12.60;99.90;;;;;;5010540;28;20393;-81
2022/10/19 09:34:57;;;;;;;8.07;1.23;;;12.90;99.90;;;;;;5008817;28;20053;-78
2022/10/19 09:37:23;;;;;;;10.52;1.20;;;12.70;99.90;;;;;;5010390;28;20046;-80
2022/10/19 09:39:51;;;;;;;10.32;1.20;;;12.70;99.90;;;;;;5010209;28;20038;-82
2022/10/19 09:42:16;;;;;;;7.43;1.77;;;12.70;99.90;;;;;;5010440;28;20083;-79
2022/10/19 09:44:42;;;;;;;11.32;1.40;;;12.80;99.90;;;;;;5010292;28;20082;-80
2022/10/19 09:47:23;;;;;;;6.68;1.48;;;12.80;99.90;;;;;;5010091;28;20045;-83
2022/10/19 09:49:48;;;;;;;7.57;1.30;;;12.80;99.90;;;;;;5010328;28;20119;-78
2022/10/19 09:52:32;;;;;;;7.50;1.25;;;12.80;99.90;;;;;;5010463;28;20038;-82
2022/10/19 09:55:08;;;;;;;12.32;1.80;;;12.80;99.90;;;;;;5010073;28;20567;-78
2022/10/19 09:57:41;;;;;;;5.65;1.00;;;12.80;99.90;;;;;;5009988;28;20042;-79
2022/10/19 10:00:21;;;;;;;8.77;1.20;;;12.80;99.90;;;;;;5010118;28;20042;-81
2022/10/19 10:02:55;;;;;;;6.40;1.20;;;12.80;99.90;;;;;;5010192;28;20045;-82
2022/10/19 10:05:50;;;;;;;11.75;1.20;;;12.90;99.90;;;;;;5009794;28;20041;-82
2022/10/19 10:08:18;;;;;;;;;;;12.90;99.90;;;;;;4987956;28;20469;-78
2022/10/19 10:10:55;;;;;;;8.95;1.40;;;12.90;99.90;;;;;;4987632;28;19921;-78
2022/10/19 10:13:24;;;;;;;4.47;0.90;;;12.90;99.90;;;;;;4987774;28;20525;-80
2022/10/19 10:16:02;;;;;;;11.90;1.20;;;12.90;99.90;;;;;;4989786;28;20058;-77
2022/10/19 10:18:29;;;;;;;9.73;1.45;;;13.00;99.90;;;;;;4991645;28;20800;-79
2022/10/19 10:21:03;;;;;;;8.40;1.23;;;13.00;99.90;;;;;;4991928;28;20133;-81
2022/10/19 10:23:35;;;;;;;6.13;0.98;;;13.00;99.90;;;;;;4992090;28;20108;-79
2022/10/19 10:26:02;;;;;;;13.70;1.33;;;13.10;99.90;;;;;;4991355;28;20528;-79
2022/10/19 10:28:29;;;;;;;9.40;1.23;;;13.00;99.90;;;;;;4991666;28;20493;-83
2022/10/19 10:31:01;;;;;;;9.50;1.38;;;13.10;99.90;;;;;;4991847;28;20074;-81
2022/10/19 10:33:29;;;;;;;7.93;1.17;;;13.10;99.90;;;;;;4975508;28;20069;-78
2022/10/19 10:36:02;;;;;;;7.07;1.20;;;13.30;99.90;;;;;;4991176;28;20502;-79
2022/10/19 10:38:35;;;;;;;10.82;1.20;;;13.20;99.90;;;;;;4991515;28;20066;-79
2022/10/19 10:41:16;;;;;;;7.47;1.05;;;13.20;99.90;;;;;;4990927;28;20054;-79
2022/10/19 10:44:02;;;;;;;11.80;1.52;;;13.40;99.90;;;;;;4993536;28;20105;-84
2022/10/19 10:46:34;;;;;;;7.97;1.15;;;13.30;99.90;;;;;;5013272;28;20103;-79
2022/10/19 10:49:05;;;;;;;10.32;1.58;;;13.40;99.90;;;;;;5013465;28;20093;-83
2022/10/19 10:51:42;;;;;;;10.70;1.38;;;13.30;99.90;;;;;;5013218;28;20045;-79
2022/10/19 10:54:18;;;;;;;4.95;0.82;;;13.40;99.90;;;;;;5013587;28;20089;-79
2022/10/19 10:57:12;;;;;;;9.50;1.30;;;13.50;99.90;;;;;;5012604;28;20396;-78
2022/10/19 10:59:59;;;;;;;8.80;1.25;;;13.70;99.90;;;;;;5013302;28;20602;-81
2022/10/19 11:02:34;;;;;;;11.73;1.27;;;13.70;99.90;;;;;;5013566;28;20053;-80
2022/10/19 11:05:24;;;;;;;7.32;1.27;;;13.80;99.90;;;;;;5013524;28;20067;-81
2022/10/19 11:08:10;;;;;;;8.43;1.00;;;13.90;99.90;;;;;;5013232;28;20026;-81
2022/10/19 11:10:44;;;;;;;10.70;1.15;;;13.90;99.90;;;;;;5013155;28;20045;-81
2022/10/19 11:13:34;;;;;;;15.75;2.25;;;14.00;99.90;;;;;;5012930;28;20116;-80
2022/10/19 11:16:15;;;;;;;11.63;1.30;;;14.10;99.90;;;;;;5005581;28;20062;-80
2022/10/19 11:18:46;;;;;;;8.25;1.33;;;13.90;99.90;;;;;;5012528;28;20120;-81
2022/10/19 11:21:22;;;;;;;18.48;1.10;;;14.20;99.90;;;;;;5012947;28;20049;-79
2022/10/19 11:23:57;;;;;;;7.30;1.02;;;14.00;99.90;;;;;;5012861;28;20037;-81
2022/10/19 11:26:28;;;;;;;8.43;1.50;;;14.10;99.90;;;;;;5012683;28;20500;-79
2022/10/19 11:29:02;;;;;;;5.53;1.10;;;14.20;99.90;;;;;;5011966;28;20076;-80
2022/10/19 11:31:31;;;;;;;6.82;0.95;;;14.20;99.90;;;;;;5012613;28;20541;-80
2022/10/19 11:34:14;;;;;;;6.85;1.13;;;14.20;99.90;;;;;;5012749;28;20410;-79
2022/10/19 11:36:48;;;;;;;11.18;1.48;;;14.20;99.90;;;;;;5012804;28;20129;-82
2022/10/19 11:39:38;;;;;;;11.23;1.43;;;14.30;99.90;;;;;;5012072;28;20053;-81
2022/10/19 11:42:36;;;;;;;8.30;1.35;;;14.30;99.90;;;;;;5012376;28;20050;-80
2022/10/19 11:45:33;;;;;;;6.47;1.10;;;14.30;99.90;;;;;;5012187;28;20050;-82
2022/10/19 11:48:04;;;;;;;11.38;1.95;;;14.30;99.90;;;;;;5012314;28;20050;-82
2022/10/19 11:51:05;;;;;;;8.65;1.63;;;14.20;99.90;;;;;;4994581;28;20575;-79
2022/10/19 11:53:41;;;;;;;17.42;2.00;;;14.30;99.90;;;;;;5012365;28;20050;-78
2022/10/19 11:56:27;;;;;;;10.70;2.05;;;14.40;99.90;;;;;;5012241;28;20563;-78
2022/10/19 11:59:30;;;;;;;10.55;2.13;;;14.50;99.90;;;;;;5011513;28;20060;-80
2022/10/19 12:02:13;;;;;;;5.18;1.23;;;14.60;99.90;;;;;;4994624;28;20049;-81
2022/10/19 12:04:59;;;;;;;11.73;2.35;;;14.40;99.90;;;;;;5012155;28;20501;-82
2022/10/19 12:07:48;;;;;;;10.90;1.48;;;14.30;99.90;;;;;;5011906;28;20049;-80
2022/10/19 12:10:25;;;;;;;10.32;1.52;;;14.30;99.90;;;;;;5012148;28;20054;-81
2022/10/19 12:13:00;;;;;;;11.32;1.50;;;14.50;99.90;;;;;;5012047;28;20046;-81
2022/10/19 12:15:42;;;;;;;9.43;1.13;;;14.20;99.90;;;;;;5011416;28;20060;-82
2022/10/19 12:18:28;;;;;;;14.15;1.17;;;14.10;99.90;;;;;;5012076;28;20042;-81
2022/10/19 12:20:58;;;;;;;10.68;1.27;;;14.20;99.90;;;;;;4994312;28;20050;-80
2022/10/19 12:23:38;;;;;;;9.40;1.40;;;14.20;99.90;;;;;;5027288;28;20781;-81
2022/10/19 12:26:08;;;;;;;6.43;1.63;;;14.20;99.90;;;;;;5011534;28;20089;-81
2022/10/19 12:28:38;;;;;;;8.77;1.50;;;14.30;99.90;;;;;;5011520;28;20064;-81
2022/10/19 12:31:05;;;;;;;5.22;1.02;;;14.60;99.90;;;;;;4993617;28;20125;-86
2022/10/19 12:33:42;;;;;;;7.80;1.58;;;14.80;99.90;;;;;;4994076;28;20054;-84
2022/10/19 12:36:08;;;;;;;7.05;1.20;;;14.70;99.90;;;;;;4993960;28;20160;-83
2022/10/19 12:39:09;;;;;;;8.85;1.33;;;14.90;99.90;;;;;;5011002;28;20492;-83
2022/10/19 12:42:09;;;;;;;8.23;1.35;;;14.70;99.90;;;;;;5011334;28;20050;-82
2022/10/19 12:45:02;;;;;;;8.73;1.40;;;14.90;99.90;;;;;;5011439;28;20077;-82
2022/10/19 12:47:28;;;;;;;10.65;1.60;;;14.90;99.90;;;;;;5010874;28;20076;-81
2022/10/19 12:49:55;;;;;;;10.20;1.10;;;15.00;99.90;;;;;;5009382;28;20069;-80
2022/10/19 12:52:39;;;;;;;7.47;1.10;;;14.90;99.90;;;;;;5010967;28;20073;-81
2022/10/19 12:55:16;;;;;;;10.93;1.55;;;15.00;99.90;;;;;;4974029;28;20112;-83
2022/10/19 12:57:47;;;;;;;11.65;1.60;;;15.20;99.90;;;;;;4991500;28;20050;-80
2022/10/19 13:00:24;;;;;;;10.15;1.50;;;15.00;99.90;;;;;;4991635;28;20058;-77
2022/10/19 13:03:04;;;;;;;7.03;1.25;;;14.90;99.90;;;;;;4991929;28;20104;-84
2022/10/19 13:05:31;;;;;;;8.88;1.52;;;15.10;99.90;;;;;;4991574;28;20061;-82
2022/10/19 13:08:03;;;;;;;4.15;0.93;;;15.20;99.90;;;;;;4973994;28;20448;-83